createdAt,value
2023-03-02T00:02:05.554Z,12.45
2023-03-02T00:04:40.048Z,12.25
2023-03-02T00:07:10.752Z,11.43
2023-03-02T00:09:38.684Z,11.82
2023-03-02T00:12:07.180Z,12.23
2023-03-02T00:14:34.239Z,12.02
2023-03-02T00:17:02.834Z,11.35
2023-03-02T00:19:30.996Z,11.85
2023-03-02T00:21:57.945Z,11.60
2023-03-02T00:24:25.095Z,12.15
2023-03-02T00:26:52.146Z,12.13
2023-03-02T00:29:19.518Z,11.98
2023-03-02T00:31:47.003Z,12.23
2023-03-02T00:34:15.409Z,12.02
2023-03-02T00:36:43.463Z,11.05
2023-03-02T00:39:10.484Z,11.38
2023-03-02T00:41:37.841Z,12.43
2023-03-02T00:44:05.117Z,10.77
2023-03-02T00:46:32.688Z,12.82
2023-03-02T00:48:59.757Z,11.82
2023-03-02T00:51:26.750Z,11.20
2023-03-02T00:53:53.856Z,10.68
2023-03-02T00:56:20.805Z,10.18
2023-03-02T00:58:51.148Z,11.30
2023-03-02T01:01:18.919Z,11.63
2023-03-02T01:03:49.716Z,10.63
2023-03-02T01:06:19.639Z,11.63
2023-03-02T01:08:46.910Z,10.73
2023-03-02T01:11:19.636Z,10.30
2023-03-02T01:13:46.920Z,10.02
2023-03-02T01:16:14.491Z,11.30
2023-03-02T01:18:41.702Z,11.00
2023-03-02T01:21:12.576Z,10.98
2023-03-02T01:23:39.848Z,10.38
2023-03-02T01:26:07.065Z,11.15
2023-03-02T01:28:35.275Z,11.05
2023-03-02T01:31:04.672Z,10.52
2023-03-02T01:33:32.540Z,10.65
2023-03-02T01:35:59.577Z,10.98
2023-03-02T01:38:27.492Z,10.07
2023-03-02T01:40:55.657Z,10.68
2023-03-02T01:43:29.579Z,9.48
2023-03-02T01:46:07.208Z,10.82
2023-03-02T01:48:51.395Z,10.30
2023-03-02T01:54:01.940Z,10.38
2023-03-02T01:59:07.721Z,10.63
2023-03-02T02:01:38.042Z,9.25
2023-03-02T02:04:06.336Z,10.00
2023-03-02T02:06:43.278Z,9.90
2023-03-02T02:09:14.744Z,10.10
2023-03-02T02:11:51.537Z,10.23
2023-03-02T02:14:18.766Z,11.02
2023-03-02T02:16:47.070Z,10.60
2023-03-02T02:19:34.350Z,10.43
2023-03-02T02:22:02.171Z,10.75
2023-03-02T02:24:53.518Z,10.57
2023-03-02T02:27:20.485Z,10.82
2023-03-02T02:29:51.699Z,10.10
2023-03-02T02:32:31.935Z,10.90
2023-03-02T02:35:30.402Z,11.82
2023-03-02T02:38:04.384Z,10.10
2023-03-02T02:40:56.163Z,10.85
2023-03-02T02:43:30.818Z,10.13
2023-03-02T02:45:59.292Z,10.20
2023-03-02T02:48:31.185Z,10.93
2023-03-02T02:51:03.354Z,11.48
2023-03-02T02:54:18.502Z,10.88
2023-03-02T02:56:48.772Z,10.65
2023-03-02T02:59:32.718Z,11.02
2023-03-02T03:02:01.246Z,10.45
2023-03-02T03:04:31.792Z,11.32
2023-03-02T03:07:06.588Z,10.77
2023-03-02T03:09:33.982Z,11.40
2023-03-02T03:12:18.017Z,11.57
2023-03-02T03:14:45.531Z,10.75
2023-03-02T03:17:12.901Z,10.48
2023-03-02T03:19:47.501Z,10.73
2023-03-02T03:22:16.371Z,11.32
2023-03-02T03:24:48.094Z,10.73
2023-03-02T03:27:17.248Z,12.13
2023-03-02T03:29:48.412Z,10.57
2023-03-02T03:32:19.040Z,11.07
2023-03-02T03:34:46.526Z,12.23
2023-03-02T03:37:21.006Z,11.20
2023-03-02T03:40:16.644Z,11.55
2023-03-02T03:42:45.414Z,11.90
2023-03-02T03:45:13.513Z,11.82
2023-03-02T03:47:42.891Z,11.23
2023-03-02T03:50:11.089Z,11.85
2023-03-02T03:53:06.572Z,11.35
2023-03-02T03:55:33.806Z,11.82
2023-03-02T03:58:00.767Z,11.40
2023-03-02T04:00:31.941Z,11.90
2023-03-02T04:03:07.401Z,12.73
2023-03-02T04:05:40.843Z,12.25
2023-03-02T04:08:08.356Z,12.13
2023-03-02T04:10:35.799Z,12.15
2023-03-02T04:13:41.807Z,11.00
2023-03-02T04:16:08.912Z,11.05
2023-03-02T04:18:36.024Z,11.20
2023-03-02T04:21:03.048Z,10.93
2023-03-02T04:23:30.145Z,12.40
2023-03-02T04:25:57.356Z,11.50
2023-03-02T04:28:24.901Z,10.45
2023-03-02T04:30:51.874Z,11.23
2023-03-02T04:33:18.933Z,11.00
2023-03-02T04:35:46.130Z,11.55
2023-03-02T04:38:13.504Z,11.35
2023-03-02T04:40:47.118Z,10.70
2023-03-02T04:43:14.413Z,11.95
2023-03-02T04:45:42.648Z,11.70
2023-03-02T04:48:09.609Z,11.63
2023-03-02T04:50:37.220Z,11.95
2023-03-02T04:53:04.615Z,11.10
2023-03-02T04:55:33.141Z,12.38
2023-03-02T04:58:00.254Z,12.52
2023-03-02T05:00:28.970Z,13.05
2023-03-02T05:02:58.138Z,12.35
2023-03-02T05:05:44.305Z,11.35
2023-03-02T05:08:11.369Z,11.63
2023-03-02T05:10:38.402Z,10.68
2023-03-02T05:13:05.947Z,11.82
2023-03-02T05:15:39.201Z,12.20
2023-03-02T05:18:08.804Z,11.00
2023-03-02T05:20:36.043Z,11.48
2023-03-02T05:23:05.763Z,11.40
2023-03-02T05:25:37.789Z,10.90
2023-03-02T05:28:05.502Z,10.75
2023-03-02T05:30:37.649Z,10.68
2023-03-02T05:33:08.029Z,10.98
2023-03-02T05:35:35.640Z,11.40
2023-03-02T05:38:02.848Z,12.48
2023-03-02T05:40:29.984Z,10.68
2023-03-02T05:42:59.767Z,11.25
2023-03-02T05:45:29.981Z,12.15
2023-03-02T05:47:57.227Z,12.82
2023-03-02T05:51:03.827Z,11.70
2023-03-02T05:53:30.813Z,13.43
2023-03-02T05:55:57.757Z,14.15
2023-03-02T05:58:28.007Z,12.07
2023-03-02T06:00:55.034Z,11.85
2023-03-02T06:03:22.030Z,11.93
2023-03-02T06:05:52.507Z,12.13
2023-03-02T06:08:21.550Z,11.45
2023-03-02T06:10:50.974Z,11.13
2023-03-02T06:13:18.269Z,12.23
2023-03-02T06:15:45.409Z,12.15
2023-03-02T06:19:17.236Z,11.77
2023-03-02T06:21:44.234Z,11.18
2023-03-02T06:24:11.983Z,11.65
2023-03-02T06:26:39.199Z,12.07
2023-03-02T06:29:07.801Z,11.27
2023-03-02T06:31:35.500Z,11.63
2023-03-02T06:34:02.658Z,11.38
2023-03-02T06:36:29.877Z,11.57
2023-03-02T06:40:07.239Z,10.88
2023-03-02T06:42:34.394Z,11.70
2023-03-02T06:45:01.453Z,11.85
2023-03-02T06:47:28.553Z,11.90
2023-03-02T06:49:56.694Z,11.52
2023-03-02T06:52:24.009Z,11.85
2023-03-02T06:54:51.821Z,12.60
2023-03-02T06:57:18.753Z,12.20
2023-03-02T06:59:45.844Z,12.23
2023-03-02T07:02:13.082Z,11.45
2023-03-02T07:09:05.696Z,10.95
2023-03-02T07:11:33.163Z,10.98
2023-03-02T07:14:01.429Z,12.15
2023-03-02T07:16:28.887Z,12.07
2023-03-02T07:18:55.806Z,12.63
2023-03-02T07:21:23.041Z,11.40
2023-03-02T07:23:50.114Z,11.05
2023-03-02T07:26:19.976Z,11.48
2023-03-02T07:28:47.744Z,12.13
2023-03-02T07:31:15.006Z,11.18
2023-03-02T07:33:42.091Z,11.43
2023-03-02T07:36:09.590Z,11.65
2023-03-02T07:38:37.938Z,12.20
2023-03-02T07:41:10.507Z,10.15
2023-03-02T07:43:38.057Z,11.23
2023-03-02T07:46:06.669Z,10.65
2023-03-02T07:48:34.519Z,10.20
2023-03-02T07:51:05.999Z,10.70
2023-03-02T07:53:33.442Z,7.25
2023-03-02T07:56:02.407Z,10.23
2023-03-02T07:58:29.687Z,10.23
2023-03-02T08:00:56.726Z,10.55
2023-03-02T08:03:23.748Z,10.13
2023-03-02T08:05:50.727Z,11.30
2023-03-02T08:08:17.779Z,9.63
2023-03-02T08:10:48.222Z,10.52
2023-03-02T08:13:15.227Z,9.73
2023-03-02T08:15:42.237Z,9.98
2023-03-02T08:18:09.243Z,10.40
2023-03-02T08:20:37.263Z,10.25
2023-03-02T08:23:04.697Z,10.18
2023-03-02T08:25:31.658Z,9.50
2023-03-02T08:27:58.590Z,9.82
2023-03-02T08:30:25.603Z,10.43
2023-03-02T08:32:52.546Z,10.40
2023-03-02T08:35:22.273Z,9.48
2023-03-02T08:37:52.099Z,9.90
2023-03-02T08:40:19.245Z,9.65
2023-03-02T08:42:46.490Z,8.80
2023-03-02T08:45:13.701Z,9.43
2023-03-02T08:47:40.747Z,9.70
2023-03-02T08:50:08.293Z,8.57
2023-03-02T08:52:35.318Z,10.10
2023-03-02T08:55:03.937Z,8.55
2023-03-02T08:57:31.275Z,9.82
2023-03-02T08:59:59.187Z,8.65
2023-03-02T09:02:26.506Z,9.05
2023-03-02T09:04:53.599Z,8.70
2023-03-02T09:07:20.831Z,9.10
2023-03-02T09:09:48.083Z,8.15
2023-03-02T09:12:16.369Z,9.18
2023-03-02T09:14:43.381Z,8.77
2023-03-02T09:17:12.996Z,7.78
2023-03-02T09:19:44.324Z,8.40
2023-03-02T09:22:12.148Z,8.32
2023-03-02T09:24:39.094Z,7.85
2023-03-02T09:27:06.035Z,8.45
2023-03-02T09:29:32.924Z,8.25
2023-03-02T09:32:00.295Z,8.35
2023-03-02T09:34:27.270Z,8.02
2023-03-02T09:36:54.176Z,8.63
2023-03-02T09:39:21.212Z,7.95
2023-03-02T09:42:02.920Z,7.95
2023-03-02T09:45:21.464Z,7.90
2023-03-02T09:48:00.243Z,7.68
2023-03-02T09:50:31.964Z,7.97
2023-03-02T09:53:39.540Z,8.25
2023-03-02T09:56:14.674Z,7.97
2023-03-02T09:58:45.389Z,8.05
2023-03-02T10:01:16.943Z,7.32
2023-03-02T10:03:58.056Z,8.63
2023-03-02T10:06:25.084Z,8.55
2023-03-02T10:08:52.301Z,8.60
2023-03-02T10:11:32.607Z,9.07
2023-03-02T10:14:08.312Z,8.07
2023-03-02T10:16:38.802Z,8.13
2023-03-02T10:19:26.985Z,7.40
2023-03-02T10:22:24.360Z,7.95
2023-03-02T10:25:16.485Z,8.50
2023-03-02T10:27:49.409Z,9.18
2023-03-02T10:30:31.949Z,8.73
2023-03-02T10:33:04.246Z,8.63
2023-03-02T10:35:32.024Z,8.70
2023-03-02T10:38:10.438Z,8.27
2023-03-02T10:40:42.450Z,8.07
2023-03-02T10:43:48.754Z,9.38
2023-03-02T10:46:15.858Z,8.82
2023-03-02T10:48:50.787Z,8.05
2023-03-02T10:51:34.377Z,8.68
2023-03-02T10:54:05.558Z,8.02
2023-03-02T10:56:33.883Z,8.57
2023-03-02T10:59:03.637Z,9.27
2023-03-02T11:01:31.907Z,8.80
2023-03-02T11:04:01.084Z,8.75
2023-03-02T11:06:29.846Z,8.82
2023-03-02T11:09:01.175Z,7.95
2023-03-02T11:11:28.877Z,8.13
2023-03-02T11:13:59.022Z,9.82
2023-03-02T11:16:31.285Z,8.07
2023-03-02T11:19:07.993Z,9.10
2023-03-02T11:21:38.436Z,8.32
2023-03-02T11:24:38.550Z,8.77
2023-03-02T11:27:13.989Z,9.38
2023-03-02T11:29:43.788Z,8.30
2023-03-02T11:32:16.357Z,8.75
2023-03-02T11:34:46.894Z,8.65
2023-03-02T11:37:47.099Z,8.52
2023-03-02T11:40:20.063Z,8.30
2023-03-02T11:42:47.677Z,8.57
2023-03-02T11:45:20.429Z,9.40
2023-03-02T11:48:47.188Z,9.50
2023-03-02T11:51:23.830Z,8.43
2023-03-02T11:54:02.844Z,8.15
2023-03-02T11:56:34.615Z,8.40
2023-03-02T11:59:06.831Z,7.75
2023-03-02T12:04:11.792Z,9.63
2023-03-02T12:06:42.114Z,8.40
2023-03-02T12:09:33.228Z,8.98
2023-03-02T12:12:15.400Z,9.50
2023-03-02T12:14:43.531Z,8.50
2023-03-02T12:17:31.296Z,8.70
2023-03-02T12:20:23.002Z,8.45
2023-03-02T12:22:53.317Z,8.83
2023-03-02T12:25:20.489Z,8.43
2023-03-02T12:27:51.014Z,8.18
2023-03-02T12:30:24.607Z,8.45
2023-03-02T12:33:11.649Z,9.32
2023-03-02T12:35:38.902Z,8.52
2023-03-02T12:38:18.930Z,8.13
2023-03-02T12:41:05.098Z,8.95
2023-03-02T12:43:37.907Z,8.48
2023-03-02T12:46:23.590Z,9.35
2023-03-02T12:49:27.393Z,7.93
2023-03-02T12:52:05.689Z,9.05
2023-03-02T12:54:34.935Z,7.75
2023-03-02T12:57:20.038Z,8.52
2023-03-02T12:59:59.730Z,7.90
2023-03-02T13:02:32.489Z,8.63
2023-03-02T13:05:08.630Z,9.60
2023-03-02T13:07:42.000Z,8.82
2023-03-02T13:10:36.174Z,8.35
2023-03-02T13:13:15.477Z,7.93
2023-03-02T13:16:20.088Z,8.05
2023-03-02T13:18:49.528Z,8.52
2023-03-02T13:21:19.649Z,12.15
2023-03-02T13:23:49.838Z,9.27
2023-03-02T13:26:25.677Z,8.68
2023-03-02T13:29:05.681Z,7.63
2023-03-02T13:31:34.363Z,8.38
2023-03-02T13:34:02.775Z,8.50
2023-03-02T13:36:38.680Z,8.85
2023-03-02T13:39:09.436Z,9.27
2023-03-02T13:41:37.641Z,8.73
2023-03-02T13:44:20.040Z,8.60
2023-03-02T13:46:47.696Z,8.27
2023-03-02T13:49:25.597Z,8.45
2023-03-02T13:52:00.961Z,8.60
2023-03-02T13:54:31.351Z,7.43
2023-03-02T13:57:00.984Z,7.15
2023-03-02T13:59:27.906Z,7.90
2023-03-02T14:01:54.983Z,8.77
2023-03-02T14:04:23.583Z,8.50
2023-03-02T14:06:51.988Z,7.22
2023-03-02T14:09:19.126Z,7.45
2023-03-02T14:11:49.612Z,7.68
2023-03-02T14:14:22.587Z,7.93
2023-03-02T14:16:50.301Z,7.63
2023-03-02T14:19:18.811Z,7.93
2023-03-02T14:21:46.874Z,8.45
2023-03-02T14:24:14.494Z,8.10
2023-03-02T14:26:47.975Z,7.35
2023-03-02T14:29:30.403Z,8.32
2023-03-02T14:32:00.768Z,7.40
2023-03-02T14:34:27.971Z,8.23
2023-03-02T14:36:58.505Z,7.85
2023-03-02T14:39:36.725Z,8.02
2023-03-02T14:42:05.365Z,7.82
2023-03-02T14:44:32.532Z,7.63
2023-03-02T14:46:59.669Z,7.93
2023-03-02T14:49:26.735Z,7.93
2023-03-02T14:52:33.869Z,7.43
2023-03-02T14:55:04.935Z,8.02
2023-03-02T14:57:38.622Z,8.25
2023-03-02T15:00:09.312Z,8.35
2023-03-02T15:02:36.768Z,8.82
2023-03-02T15:05:04.004Z,8.80
2023-03-02T15:07:30.911Z,7.78
2023-03-02T15:09:58.547Z,8.75
2023-03-02T15:12:25.850Z,8.30
2023-03-02T15:14:53.139Z,8.20
2023-03-02T15:17:20.493Z,8.95
2023-03-02T15:19:48.414Z,8.20
2023-03-02T15:22:15.828Z,9.43
2023-03-02T15:24:42.856Z,8.82
2023-03-02T15:27:10.034Z,7.75
2023-03-02T15:29:36.915Z,7.70
2023-03-02T15:32:04.411Z,7.20
2023-03-02T15:34:31.315Z,7.95
2023-03-02T15:36:58.301Z,8.27
2023-03-02T15:39:25.656Z,7.93
2023-03-02T15:41:53.980Z,7.53
2023-03-02T15:44:24.627Z,8.90
2023-03-02T15:46:56.804Z,7.57
2023-03-02T15:49:27.295Z,8.75
2023-03-02T15:51:57.503Z,8.27
2023-03-02T15:54:28.295Z,8.13
2023-03-02T15:56:55.481Z,7.55
2023-03-02T15:59:25.486Z,8.35
2023-03-02T16:01:53.579Z,8.90
2023-03-02T16:04:20.965Z,8.57
2023-03-02T16:06:47.914Z,8.70
2023-03-02T16:09:15.451Z,8.88
2023-03-02T16:11:42.449Z,8.00
2023-03-02T16:14:09.834Z,8.93
2023-03-02T16:16:36.928Z,10.07
2023-03-02T16:19:04.103Z,8.85
2023-03-02T16:21:31.155Z,8.27
2023-03-02T16:24:04.702Z,9.50
2023-03-02T16:26:34.628Z,10.13
2023-03-02T16:29:02.441Z,8.55
2023-03-02T16:31:33.939Z,9.68
2023-03-02T16:34:06.331Z,9.70
2023-03-02T16:36:34.632Z,9.65
2023-03-02T16:39:01.989Z,11.13
2023-03-02T16:41:29.387Z,11.57
2023-03-02T16:43:58.855Z,10.40
2023-03-02T16:46:28.866Z,9.95
2023-03-02T16:48:57.253Z,10.50
2023-03-02T16:51:25.035Z,9.18
2023-03-02T16:53:52.837Z,8.40
2023-03-02T16:56:20.517Z,9.80
2023-03-02T16:58:47.579Z,9.45
2023-03-02T17:01:18.708Z,10.18
2023-03-02T17:03:46.990Z,9.25
2023-03-02T17:06:16.010Z,9.25
2023-03-02T17:08:43.085Z,9.50
2023-03-02T17:11:12.007Z,9.02
2023-03-02T17:13:39.733Z,8.45
2023-03-02T17:16:08.211Z,9.80
2023-03-02T17:18:35.379Z,9.63
2023-03-02T17:21:05.174Z,9.00
2023-03-02T17:23:32.707Z,9.35
2023-03-02T17:26:01.688Z,9.43
2023-03-02T17:28:28.726Z,10.48
2023-03-02T17:30:55.778Z,9.52
2023-03-02T17:33:22.937Z,9.75
2023-03-02T17:35:50.417Z,8.75
2023-03-02T17:38:17.705Z,8.43
2023-03-02T17:40:45.076Z,8.75
2023-03-02T17:43:13.737Z,8.90
2023-03-02T17:45:41.592Z,9.40
2023-03-02T17:48:08.577Z,9.93
2023-03-02T17:50:35.723Z,9.70
2023-03-02T17:53:03.100Z,8.60
2023-03-02T17:55:30.894Z,9.52
2023-03-02T17:57:58.229Z,9.30
2023-03-02T18:00:25.651Z,10.27
2023-03-02T18:02:54.707Z,9.82
2023-03-02T18:05:22.422Z,10.20
2023-03-02T18:07:50.254Z,9.57
2023-03-02T18:10:17.258Z,9.60
2023-03-02T18:12:44.399Z,10.38
2023-03-02T18:15:12.793Z,9.35
2023-03-02T18:17:40.254Z,10.57
2023-03-02T18:20:13.226Z,10.38
2023-03-02T18:22:40.516Z,10.48
2023-03-02T18:25:08.763Z,11.07
2023-03-02T18:27:36.217Z,9.75
2023-03-02T18:30:04.185Z,10.07
2023-03-02T18:32:31.400Z,11.70
2023-03-02T18:34:59.823Z,10.23
2023-03-02T18:37:26.972Z,10.27
2023-03-02T18:39:53.933Z,10.85
2023-03-02T18:42:20.982Z,10.35
2023-03-02T18:44:49.282Z,11.10
2023-03-02T18:47:18.201Z,10.75
2023-03-02T18:49:46.739Z,12.00
2023-03-02T18:52:17.363Z,10.70
2023-03-02T18:54:45.696Z,11.25
2023-03-02T18:57:14.172Z,10.82
2023-03-02T18:59:41.260Z,11.23
2023-03-02T19:02:13.368Z,10.43
2023-03-02T19:04:40.517Z,10.60
2023-03-02T19:07:07.680Z,10.95
2023-03-02T19:09:35.165Z,11.18
2023-03-02T19:12:04.821Z,11.07
2023-03-02T19:14:33.679Z,10.40
2023-03-02T19:17:03.739Z,12.18
2023-03-02T19:19:33.772Z,12.27
2023-03-02T19:22:01.278Z,11.60
2023-03-02T19:24:28.441Z,10.77
2023-03-02T19:26:57.278Z,11.35
2023-03-02T19:29:24.444Z,11.05
2023-03-02T19:31:52.469Z,13.05
2023-03-02T19:34:19.502Z,12.02
2023-03-02T19:36:47.603Z,13.15
2023-03-02T19:39:14.704Z,16.70
2023-03-02T19:41:41.801Z,19.17
2023-03-02T19:44:09.041Z,14.57
2023-03-02T19:46:36.020Z,14.43
2023-03-02T19:49:03.019Z,13.68
2023-03-02T19:51:30.826Z,13.15
2023-03-02T19:53:58.039Z,12.25
2023-03-02T19:56:32.925Z,12.38
2023-03-02T19:59:01.898Z,12.50
2023-03-02T20:01:30.211Z,11.85
2023-03-02T20:03:58.223Z,11.95
2023-03-02T20:06:31.591Z,11.95
2023-03-02T20:09:01.410Z,12.05
2023-03-02T20:11:30.922Z,11.95
2023-03-02T20:14:02.346Z,10.98
2023-03-02T20:16:31.830Z,12.43
2023-03-02T20:19:02.044Z,13.00
2023-03-02T20:21:30.796Z,12.30
2023-03-02T20:23:57.860Z,12.63
2023-03-02T20:26:25.746Z,12.20
2023-03-02T20:28:55.482Z,12.00
2023-03-02T20:31:24.923Z,11.90
2023-03-02T20:33:53.753Z,11.35
2023-03-02T20:36:29.531Z,11.38
2023-03-02T20:39:10.107Z,11.65
2023-03-02T20:41:37.128Z,11.52
2023-03-02T20:44:05.627Z,12.27
2023-03-02T20:46:37.017Z,12.45
2023-03-02T20:49:06.572Z,11.85
2023-03-02T20:51:33.723Z,11.85
2023-03-02T20:54:02.049Z,12.35
2023-03-02T20:56:29.509Z,12.05
2023-03-02T20:58:56.608Z,11.30
2023-03-02T21:01:24.827Z,11.38
2023-03-02T21:03:52.969Z,11.85
2023-03-02T21:06:20.426Z,11.90
2023-03-02T21:08:47.560Z,12.43
2023-03-02T21:11:17.729Z,12.35
2023-03-02T21:13:46.633Z,11.82
2023-03-02T21:16:24.884Z,11.70
2023-03-02T21:18:52.351Z,11.50
2023-03-02T21:21:23.008Z,11.65
2023-03-02T21:23:52.033Z,12.88
2023-03-02T21:26:19.644Z,11.50
2023-03-02T21:28:47.811Z,11.73
2023-03-02T21:31:19.003Z,12.85
2023-03-02T21:33:46.747Z,12.33
2023-03-02T21:36:21.978Z,12.90
2023-03-02T21:38:52.613Z,11.93
2023-03-02T21:41:19.967Z,13.45
2023-03-02T21:43:48.024Z,13.18
2023-03-02T21:46:20.093Z,14.65
2023-03-02T21:51:18.995Z,13.23
2023-03-02T21:53:47.640Z,13.25
2023-03-02T21:56:26.191Z,14.55
2023-03-02T21:58:56.439Z,14.32
2023-03-02T22:01:25.832Z,15.00
2023-03-02T22:03:54.095Z,14.65
2023-03-02T22:06:24.591Z,15.18
2023-03-02T22:08:52.972Z,15.23
2023-03-02T22:11:23.701Z,15.55
2023-03-02T22:13:52.456Z,16.40
2023-03-02T22:16:26.598Z,16.42
2023-03-02T22:18:57.210Z,16.55
2023-03-02T22:21:43.605Z,15.02
2023-03-02T22:24:17.614Z,15.68
2023-03-02T22:27:09.261Z,16.58
2023-03-02T22:29:43.623Z,16.43
2023-03-02T22:32:25.364Z,17.73
2023-03-02T22:34:55.212Z,16.63
2023-03-02T22:37:33.137Z,17.77
2023-03-02T22:40:32.940Z,17.65
2023-03-02T22:43:34.733Z,17.95
2023-03-02T22:46:20.395Z,17.63
2023-03-02T22:48:50.752Z,18.13
2023-03-02T22:51:25.024Z,18.65
2023-03-02T22:53:57.463Z,19.10
2023-03-02T22:56:45.904Z,19.33
2023-03-02T22:59:35.918Z,19.60
2023-03-02T23:02:13.234Z,17.88
2023-03-02T23:04:40.819Z,18.65
2023-03-02T23:07:17.491Z,18.20
2023-03-02T23:09:45.814Z,19.27
2023-03-02T23:12:20.147Z,20.65
2023-03-02T23:14:58.225Z,19.05
2023-03-02T23:17:35.959Z,20.73
2023-03-02T23:20:06.999Z,20.58
2023-03-02T23:22:34.198Z,21.00
2023-03-02T23:25:01.417Z,19.63
2023-03-02T23:27:28.426Z,21.27
2023-03-02T23:29:55.698Z,20.73
2023-03-02T23:32:22.941Z,20.95
2023-03-02T23:34:50.289Z,21.35
2023-03-02T23:37:17.234Z,20.10
2023-03-02T23:39:46.069Z,22.15
2023-03-02T23:42:14.394Z,22.13
2023-03-02T23:44:41.623Z,20.95
2023-03-02T23:47:08.617Z,22.63
2023-03-02T23:49:38.461Z,22.30
2023-03-02T23:52:06.705Z,22.10
2023-03-02T23:54:33.909Z,20.85
2023-03-02T23:57:01.123Z,21.52
2023-03-02T23:59:28.023Z,22.40
